Wheeling Ohio County Airport
KHLG : rendu visible

Aérodrome :











RETROUVEZ-NOUS SUR...

 
LOGIN :

S'inscrire | Disclaimer

   EN    FR    IT 

 









Légende :    VFR   VFR Marginal   IFR   IFR Intensif   IFR Très Intensif
Visi : 
Plafond : 
>= 8 km
>= 3000ft
5 à 8 km
1000 à 3000 ft
1500m à 5 km
500 à 1000 ft
800 à 1500m
200 à 500 ft
< 800m
< 200 ft
Symboles :   Orages  Brouillard  Fortes neiges  Fortes précipitations  Vent > 20 kt






- Altitude de l'aérodrome : 1195 ft


KHLG - Wheeling Ohio County

DERNIER METAR :
  • 181702Z 19009KT 2 1/2SM +RA BR BKN029 OVC040 02/01 A2994 RMK AO2 P0004 T00220006

METARs EXPIRÉS :
  • 181653Z 16011G19KT 2 1/2SM +RA BR SCT031 BKN040 OVC047 02/00 A2992 RMK AO2 SLP147 P0015 T00170000
  • 181646Z 15012KT 2 1/2SM +RA BR BKN029 BKN040 OVC070 02/00 A2993 RMK AO2 VIS 1 3/4V3 P0013 T00170000
  • 181553Z 15012G18KT 5SM RA BR OVC033 01/M01 A3000 RMK AO2 SLP173 P0006 T00111006
  • 181453Z 15009KT 4SM RA BR OVC037 01/M01 A3006 RMK AO2 UPB17E53RAB53FZRAE17 SLP194 P0009 60018 I1002 I3009 T00061011 58047
  • 181423Z 15010KT 4SM UP BR FEW030 OVC039 00/M02 A3008 RMK AO2 UPB17FZRAE17 P0004 I1002 T00001017

TAF KHLG
Valide du 18 à 12h jusqu'au 19 à 12h UTC


181120Z 1812/1912 11010KT P6SM SCT008 OVC035
FM181400 16010KT 2SM -FZRASN OVC025
FM181600 17012G22KT 3SM -RA OVC008 WS020/21045KT
FM181900 21015G25KT 5SM -RA OVC015
FM182200 24015G25KT P6SM OVC015



MET'MAP, la Météo Aéronautique d'un coup d'oeil ! - Copyright ORBIFLY Décembre 2007 - Disclaimer

ORBIFLY MET'MAP TEAM :

Programmation & Développement : Alexandra Zaïnal
Sur une idée originale de : Baudouin d'Aumeries
Assistance à la programmation : Marc-Olivier Méhu
Soutien technique & logistique : Manuel Goepfert

Contact : metmap@orbifly.com




SOURCES & CREDITS :

   NOAA       Earth
Advisory